13:43
Airports
History
Links
Donate
Help keep this website running!
PayPal
Bitcoin
This page is community maintained. The information is intended for PC simulator navigation or reference.
Always use approved charts for navigation.
LIRU
UrbeEdited 30-Jun-2011
Urbe (LIRU)
Rome, Lazio, Italy (138)
(C)
Lat/Lng:41° 57' 8.55" N / 12° 30' 8.1" E
41.952376 / 12.50225
Elevation:55'ft / 17mMSL
ID / ICAO:LIRU
Runways:1
Longest:16-34
Asphalt 1,078m / 3,538ft
Controlled:Yes
Beacon:White-Green
(Edited 2011-06-30) [ Sign in to Edit ]
METAR12:50 GMT 2017-11-20
Altimeter: 30.12
Visibility: 6.2 statute miles
Wind: 1 knots (from VRB°)
Temp: 16°c / 61°f
Humidity: 44.7%

METAR: LIRU 201250Z VRB01KT CAVOK 16/04 Q1020

(Powered by phpweather)
Airport Radio Frequencies
Ground: 122.7
Tower: 123.8
Nearby VORs <50NM
Nearby NDBs
Runway 16 / 34
Dimensions:1078.3 x 29.9m 3538' x 98'ft
Surface:Asphalt
Runway 16 [A]Runway 34 [B]
Heading:160°TH 340°TH
Lat:
Lng:
41° 57' 25.05"N
12° 30' 0.03"E
41° 56' 52.05"N
12° 30' 16.17"E
User Notes and Comments
41° 57' 8.55" N / 12° 30' 8.1" E
Distance To
Airport ID:
Nearby Airports
(C) CIAMPINO 11.6 NM
LIRA ( WX ) SSE 155°
(C) GUIDONIA 12.3 NM
LIRG ( WX ) ENE 77°
(C) Roma Fiumicino Leonardo Da Vinci 16.1 NM
LIRF ( WX ) SW 233°
(C) Pratica Di Mare 20.8 NM
LIRE ( WX ) S 188°
(C) LATINA 35.2 NM
LIRL ( WX ) SE 143°
4 Rieti 37.3 NM
LIQN ( WX ) NNE 28°
(C) VITERBO 40.3 NM
LIRV ( WX ) NW 325°
VFR Chart
Flight Planning at SkyVector.com